sensor_id;sensor_type;location;lat;lon;timestamp;pressure;altitude;pressure_sealevel;temperature;humidity
15794;BME280;7999;51.208;4.244;2023-02-04T00:01:17;103344.53;;;9.22;100.00
15794;BME280;7999;51.208;4.244;2023-02-04T00:03:46;103350.59;;;9.22;100.00
15794;BME280;7999;51.208;4.244;2023-02-04T00:06:13;103344.94;;;9.31;100.00
15794;BME280;7999;51.208;4.244;2023-02-04T00:08:40;103347.25;;;9.25;100.00
15794;BME280;7999;51.208;4.244;2023-02-04T00:11:07;103351.94;;;9.32;100.00
15794;BME280;7999;51.208;4.244;2023-02-04T00:13:35;103350.00;;;9.28;100.00
15794;BME280;7999;51.208;4.244;2023-02-04T00:16:01;103354.78;;;9.19;100.00
15794;BME280;7999;51.208;4.244;2023-02-04T00:18:28;103348.91;;;9.23;100.00
15794;BME280;7999;51.208;4.244;2023-02-04T00:20:57;103362.16;;;9.29;100.00
15794;BME280;7999;51.208;4.244;2023-02-04T00:23:23;103356.69;;;9.23;100.00
15794;BME280;7999;51.208;4.244;2023-02-04T00:25:50;103355.72;;;9.21;100.00
15794;BME280;7999;51.208;4.244;2023-02-04T00:28:17;103363.91;;;9.30;100.00
15794;BME280;7999;51.208;4.244;2023-02-04T00:30:44;103362.63;;;9.20;100.00
15794;BME280;7999;51.208;4.244;2023-02-04T00:33:11;103362.84;;;9.25;100.00
15794;BME280;7999;51.208;4.244;2023-02-04T00:35:38;103359.56;;;9.10;100.00
15794;BME280;7999;51.208;4.244;2023-02-04T00:38:07;103369.34;;;8.97;100.00
15794;BME280;7999;51.208;4.244;2023-02-04T00:40:33;103371.44;;;9.05;100.00
15794;BME280;7999;51.208;4.244;2023-02-04T00:43:01;103381.06;;;9.07;100.00
15794;BME280;7999;51.208;4.244;2023-02-04T00:45:28;103373.03;;;9.03;100.00
15794;BME280;7999;51.208;4.244;2023-02-04T00:47:55;103371.94;;;8.97;100.00
15794;BME280;7999;51.208;4.244;2023-02-04T00:50:22;103372.47;;;8.90;100.00
15794;BME280;7999;51.208;4.244;2023-02-04T00:52:49;103370.31;;;8.99;100.00
15794;BME280;7999;51.208;4.244;2023-02-04T00:55:18;103360.75;;;8.98;100.00
15794;BME280;7999;51.208;4.244;2023-02-04T00:57:45;103371.91;;;8.78;100.00
15794;BME280;7999;51.208;4.244;2023-02-04T01:00:13;103368.66;;;8.82;100.00
15794;BME280;7999;51.208;4.244;2023-02-04T01:02:40;103368.31;;;8.76;100.00
15794;BME280;7999;51.208;4.244;2023-02-04T01:05:07;103366.41;;;8.90;100.00
15794;BME280;7999;51.208;4.244;2023-02-04T01:07:36;103379.91;;;8.83;100.00
15794;BME280;7999;51.208;4.244;2023-02-04T01:10:03;103375.00;;;8.89;100.00
15794;BME280;7999;51.208;4.244;2023-02-04T01:12:32;103382.44;;;8.81;100.00
15794;BME280;7999;51.208;4.244;2023-02-04T01:14:58;103382.94;;;8.74;100.00
15794;BME280;7999;51.208;4.244;2023-02-04T01:17:25;103389.81;;;8.91;100.00
15794;BME280;7999;51.208;4.244;2023-02-04T01:19:52;103393.69;;;8.82;100.00
15794;BME280;7999;51.208;4.244;2023-02-04T01:22:19;103385.53;;;8.74;100.00
15794;BME280;7999;51.208;4.244;2023-02-04T01:24:46;103391.66;;;8.76;100.00
15794;BME280;7999;51.208;4.244;2023-02-04T01:27:33;103390.16;;;8.80;100.00
15794;BME280;7999;51.208;4.244;2023-02-04T01:30:01;103398.13;;;8.66;100.00
15794;BME280;7999;51.208;4.244;2023-02-04T01:32:28;103400.50;;;8.62;100.00
15794;BME280;7999;51.208;4.244;2023-02-04T01:34:55;103404.00;;;8.62;100.00
15794;BME280;7999;51.208;4.244;2023-02-04T01:37:21;103398.13;;;8.66;100.00
15794;BME280;7999;51.208;4.244;2023-02-04T01:39:55;103405.84;;;8.65;100.00
15794;BME280;7999;51.208;4.244;2023-02-04T01:42:22;103413.47;;;8.62;100.00
15794;BME280;7999;51.208;4.244;2023-02-04T01:44:50;103418.81;;;8.65;100.00
15794;BME280;7999;51.208;4.244;2023-02-04T01:47:20;103409.31;;;8.65;100.00
15794;BME280;7999;51.208;4.244;2023-02-04T01:49:47;103416.66;;;8.56;100.00
15794;BME280;7999;51.208;4.244;2023-02-04T01:52:16;103418.16;;;8.51;100.00
15794;BME280;7999;51.208;4.244;2023-02-04T01:54:43;103421.22;;;8.44;100.00
15794;BME280;7999;51.208;4.244;2023-02-04T01:57:12;103423.75;;;8.43;100.00
15794;BME280;7999;51.208;4.244;2023-02-04T01:59:40;103422.38;;;8.49;100.00
15794;BME280;7999;51.208;4.244;2023-02-04T02:04:55;103421.66;;;8.35;100.00
15794;BME280;7999;51.208;4.244;2023-02-04T02:07:23;103435.69;;;8.23;100.00
15794;BME280;7999;51.208;4.244;2023-02-04T02:09:49;103440.94;;;8.24;100.00
15794;BME280;7999;51.208;4.244;2023-02-04T02:12:16;103441.59;;;8.36;100.00
15794;BME280;7999;51.208;4.244;2023-02-04T02:14:43;103430.44;;;8.05;100.00
15794;BME280;7999;51.208;4.244;2023-02-04T02:17:09;103444.53;;;8.10;100.00
15794;BME280;7999;51.208;4.244;2023-02-04T02:19:37;103440.00;;;8.06;100.00
15794;BME280;7999;51.208;4.244;2023-02-04T02:22:09;103444.13;;;7.86;100.00
15794;BME280;7999;51.208;4.244;2023-02-04T02:24:40;103444.22;;;7.71;100.00
15794;BME280;7999;51.208;4.244;2023-02-04T02:27:07;103460.56;;;7.87;100.00
15794;BME280;7999;51.208;4.244;2023-02-04T02:29:35;103463.72;;;7.97;100.00
15794;BME280;7999;51.208;4.244;2023-02-04T02:32:02;103457.66;;;7.97;100.00
15794;BME280;7999;51.208;4.244;2023-02-04T02:34:30;103454.81;;;7.92;100.00
15794;BME280;7999;51.208;4.244;2023-02-04T02:36:57;103456.69;;;7.79;100.00
15794;BME280;7999;51.208;4.244;2023-02-04T02:39:25;103459.78;;;7.71;100.00
15794;BME280;7999;51.208;4.244;2023-02-04T02:42:08;103457.47;;;7.61;100.00
15794;BME280;7999;51.208;4.244;2023-02-04T02:44:35;103453.44;;;7.50;100.00
15794;BME280;7999;51.208;4.244;2023-02-04T02:47:01;103470.50;;;7.63;100.00
15794;BME280;7999;51.208;4.244;2023-02-04T02:49:31;103452.66;;;7.67;100.00
15794;BME280;7999;51.208;4.244;2023-02-04T02:51:59;103460.41;;;7.67;100.00
15794;BME280;7999;51.208;4.244;2023-02-04T02:54:27;103454.16;;;7.48;100.00
15794;BME280;7999;51.208;4.244;2023-02-04T02:56:57;103459.59;;;7.68;100.00
15794;BME280;7999;51.208;4.244;2023-02-04T02:59:25;103452.66;;;7.67;100.00
15794;BME280;7999;51.208;4.244;2023-02-04T03:01:52;103453.44;;;7.83;100.00
15794;BME280;7999;51.208;4.244;2023-02-04T03:04:23;103459.25;;;7.62;100.00
15794;BME280;7999;51.208;4.244;2023-02-04T03:06:51;103455.88;;;7.80;100.00
15794;BME280;7999;51.208;4.244;2023-02-04T03:09:19;103459.34;;;7.80;100.00
15794;BME280;7999;51.208;4.244;2023-02-04T03:11:46;103464.78;;;7.85;100.00
15794;BME280;7999;51.208;4.244;2023-02-04T03:14:13;103460.25;;;7.81;100.00
15794;BME280;7999;51.208;4.244;2023-02-04T03:16:41;103462.50;;;7.91;100.00
15794;BME280;7999;51.208;4.244;2023-02-04T03:19:11;103461.53;;;7.72;100.00
15794;BME280;7999;51.208;4.244;2023-02-04T03:21:39;103461.38;;;7.86;100.00
15794;BME280;7999;51.208;4.244;2023-02-04T03:24:07;103463.31;;;7.90;100.00
15794;BME280;7999;51.208;4.244;2023-02-04T03:26:35;103456.69;;;7.79;100.00
15794;BME280;7999;51.208;4.244;2023-02-04T03:29:05;103461.44;;;7.87;100.00
15794;BME280;7999;51.208;4.244;2023-02-04T03:31:31;103460.72;;;7.90;100.00
15794;BME280;7999;51.208;4.244;2023-02-04T03:34:00;103460.09;;;7.78;100.00
15794;BME280;7999;51.208;4.244;2023-02-04T03:36:26;103469.97;;;7.68;100.00
15794;BME280;7999;51.208;4.244;2023-02-04T03:38:53;103469.13;;;7.86;100.00
15794;BME280;7999;51.208;4.244;2023-02-04T03:41:21;103469.13;;;7.86;100.00
15794;BME280;7999;51.208;4.244;2023-02-04T03:43:48;103470.84;;;8.01;100.00
15794;BME280;7999;51.208;4.244;2023-02-04T03:46:15;103477.22;;;8.08;100.00
15794;BME280;7999;51.208;4.244;2023-02-04T03:48:42;103477.53;;;8.14;100.00
15794;BME280;7999;51.208;4.244;2023-02-04T03:51:11;103471.59;;;7.99;100.00
15794;BME280;7999;51.208;4.244;2023-02-04T03:53:38;103468.84;;;7.96;100.00
15794;BME280;7999;51.208;4.244;2023-02-04T03:56:05;103468.56;;;7.91;100.00
15794;BME280;7999;51.208;4.244;2023-02-04T03:58:32;103475.53;;;7.92;100.00
15794;BME280;7999;51.208;4.244;2023-02-04T04:01:00;103472.31;;;7.96;100.00
15794;BME280;7999;51.208;4.244;2023-02-04T04:03:27;103478.19;;;7.94;100.00
15794;BME280;7999;51.208;4.244;2023-02-04T04:05:54;103476.75;;;7.99;100.00
15794;BME280;7999;51.208;4.244;2023-02-04T04:08:24;103483.97;;;8.04;100.00
15794;BME280;7999;51.208;4.244;2023-02-04T04:10:52;103481.13;;;8.00;100.00
15794;BME280;7999;51.208;4.244;2023-02-04T04:13:18;103482.34;;;8.06;100.00
15794;BME280;7999;51.208;4.244;2023-02-04T04:15:45;103485.81;;;8.07;100.00
15794;BME280;7999;51.208;4.244;2023-02-04T04:18:12;103487.59;;;7.92;100.00
15794;BME280;7999;51.208;4.244;2023-02-04T04:20:39;103486.78;;;7.93;100.00
15794;BME280;7999;51.208;4.244;2023-02-04T04:23:06;103487.13;;;7.99;100.00
15794;BME280;7999;51.208;4.244;2023-02-04T04:25:34;103482.09;;;8.02;100.00
15794;BME280;7999;51.208;4.244;2023-02-04T04:28:02;103486.97;;;7.96;100.00
15794;BME280;7999;51.208;4.244;2023-02-04T04:30:28;103490.19;;;7.92;100.00
15794;BME280;7999;51.208;4.244;2023-02-04T04:32:55;103489.56;;;7.96;100.00
15794;BME280;7999;51.208;4.244;2023-02-04T04:35:22;103493.50;;;8.05;100.00
15794;BME280;7999;51.208;4.244;2023-02-04T04:37:49;103501.66;;;8.13;100.00
15794;BME280;7999;51.208;4.244;2023-02-04T04:40:16;103505.06;;;8.12;100.00
15794;BME280;7999;51.208;4.244;2023-02-04T04:42:46;103502.00;;;8.19;100.00
15794;BME280;7999;51.208;4.244;2023-02-04T04:45:12;103494.28;;;8.21;100.00
15794;BME280;7999;51.208;4.244;2023-02-04T04:47:40;103496.34;;;8.26;100.00
15794;BME280;7999;51.208;4.244;2023-02-04T04:50:07;103503.28;;;8.11;100.00
15794;BME280;7999;51.208;4.244;2023-02-04T04:52:33;103498.94;;;8.26;100.00
15794;BME280;7999;51.208;4.244;2023-02-04T04:55:00;103494.38;;;8.39;100.00
15794;BME280;7999;51.208;4.244;2023-02-04T04:57:27;103496.63;;;8.32;100.00
15794;BME280;7999;51.208;4.244;2023-02-04T04:59:55;103495.88;;;8.33;100.00
15794;BME280;7999;51.208;4.244;2023-02-04T05:02:22;103495.94;;;8.35;100.00
15794;BME280;7999;51.208;4.244;2023-02-04T05:04:48;103497.00;;;8.22;100.00
15794;BME280;7999;51.208;4.244;2023-02-04T05:07:15;103500.38;;;8.21;100.00
15794;BME280;7999;51.208;4.244;2023-02-04T05:09:42;103496.00;;;8.36;100.00
15794;BME280;7999;51.208;4.244;2023-02-04T05:12:09;103496.16;;;8.40;100.00
15794;BME280;7999;51.208;4.244;2023-02-04T05:14:36;103497.78;;;8.38;100.00
15794;BME280;7999;51.208;4.244;2023-02-04T05:17:04;103498.34;;;8.32;100.00
15794;BME280;7999;51.208;4.244;2023-02-04T05:19:32;103496.84;;;8.35;100.00
15794;BME280;7999;51.208;4.244;2023-02-04T05:21:59;103497.06;;;8.40;100.00
15794;BME280;7999;51.208;4.244;2023-02-04T05:24:26;103495.06;;;8.34;100.00
15794;BME280;7999;51.208;4.244;2023-02-04T05:26:54;103498.34;;;8.32;100.00
15794;BME280;7999;51.208;4.244;2023-02-04T05:29:21;103495.53;;;8.27;100.00
15794;BME280;7999;51.208;4.244;2023-02-04T05:31:48;103499.09;;;8.29;100.00
15794;BME280;7999;51.208;4.244;2023-02-04T05:34:17;103502.34;;;8.25;100.00
15794;BME280;7999;51.208;4.244;2023-02-04T05:36:44;103503.97;;;8.23;100.00
15794;BME280;7999;51.208;4.244;2023-02-04T05:39:10;103498.34;;;8.32;100.00
15794;BME280;7999;51.208;4.244;2023-02-04T05:41:38;103504.59;;;8.35;100.00
15794;BME280;7999;51.208;4.244;2023-02-04T05:44:04;103499.41;;;8.35;100.00
15794;BME280;7999;51.208;4.244;2023-02-04T05:46:32;103502.97;;;8.38;100.00
15794;BME280;7999;51.208;4.244;2023-02-04T05:48:59;103505.22;;;8.31;100.00
15794;BME280;7999;51.208;4.244;2023-02-04T05:51:27;103521.28;;;8.24;100.00
15794;BME280;7999;51.208;4.244;2023-02-04T05:53:55;103517.88;;;8.25;100.00
15794;BME280;7999;51.208;4.244;2023-02-04T05:56:21;103514.31;;;8.23;100.00
15794;BME280;7999;51.208;4.244;2023-02-04T05:58:49;103517.38;;;8.16;100.00
15794;BME280;7999;51.208;4.244;2023-02-04T06:01:16;103511.97;;;8.28;100.00
15794;BME280;7999;51.208;4.244;2023-02-04T06:03:43;103516.34;;;8.29;100.00
15794;BME280;7999;51.208;4.244;2023-02-04T06:06:10;103509.44;;;8.29;100.00
15794;BME280;7999;51.208;4.244;2023-02-04T06:08:38;103525.50;;;8.22;100.00
15794;BME280;7999;51.208;4.244;2023-02-04T06:11:05;103528.47;;;8.14;100.00
15794;BME280;7999;51.208;4.244;2023-02-04T06:13:32;103530.34;;;8.16;100.00
15794;BME280;7999;51.208;4.244;2023-02-04T06:15:59;103532.78;;;8.29;100.00
15794;BME280;7999;51.208;4.244;2023-02-04T06:18:26;103537.16;;;8.30;100.00
15794;BME280;7999;51.208;4.244;2023-02-04T06:20:53;103542.59;;;8.35;100.00
15794;BME280;7999;51.208;4.244;2023-02-04T06:23:19;103536.84;;;8.24;100.00
15794;BME280;7999;51.208;4.244;2023-02-04T06:25:56;103543.78;;;8.25;100.00
15794;BME280;7999;51.208;4.244;2023-02-04T06:28:30;103541.34;;;8.28;100.00
15794;BME280;7999;51.208;4.244;2023-02-04T06:30:59;103542.75;;;8.22;100.00
15794;BME280;7999;51.208;4.244;2023-02-04T06:33:26;103546.47;;;8.27;100.00
15794;BME280;7999;51.208;4.244;2023-02-04T06:35:53;103556.75;;;8.25;100.00
15794;BME280;7999;51.208;4.244;2023-02-04T06:38:20;103559.03;;;8.35;100.00
15794;BME280;7999;51.208;4.244;2023-02-04T06:40:47;103561.84;;;8.24;100.00
15794;BME280;7999;51.208;4.244;2023-02-04T06:43:19;103565.41;;;8.26;100.00
15794;BME280;7999;51.208;4.244;2023-02-04T06:45:48;103565.06;;;8.20;100.00
15794;BME280;7999;51.208;4.244;2023-02-04T06:48:16;103562.91;;;8.27;100.00
15794;BME280;7999;51.208;4.244;2023-02-04T06:50:43;103573.13;;;8.24;100.00
15794;BME280;7999;51.208;4.244;2023-02-04T06:53:10;103574.53;;;8.19;100.00
15794;BME280;7999;51.208;4.244;2023-02-04T06:55:37;103573.28;;;8.27;100.00
15794;BME280;7999;51.208;4.244;2023-02-04T06:58:04;103572.16;;;8.22;100.00
15794;BME280;7999;51.208;4.244;2023-02-04T07:00:32;103580.06;;;8.25;100.00
15794;BME280;7999;51.208;4.244;2023-02-04T07:02:59;103577.31;;;8.22;100.00
15794;BME280;7999;51.208;4.244;2023-02-04T07:05:25;103589.78;;;8.13;100.00
15794;BME280;7999;51.208;4.244;2023-02-04T07:07:52;103585.25;;;8.25;100.00
15794;BME280;7999;51.208;4.244;2023-02-04T07:10:19;103584.28;;;8.23;100.00
15794;BME280;7999;51.208;4.244;2023-02-04T07:12:46;103590.53;;;8.27;100.00
15794;BME280;7999;51.208;4.244;2023-02-04T07:15:12;103592.06;;;8.23;100.00
15794;BME280;7999;51.208;4.244;2023-02-04T07:17:40;103598.66;;;8.18;100.00
15794;BME280;7999;51.208;4.244;2023-02-04T07:20:08;103594.00;;;8.27;100.00
15794;BME280;7999;51.208;4.244;2023-02-04T07:22:35;103588.97;;;8.30;100.00
15794;BME280;7999;51.208;4.244;2023-02-04T07:25:02;103592.00;;;8.38;100.00
15794;BME280;7999;51.208;4.244;2023-02-04T07:27:29;103588.00;;;8.28;100.00
15794;BME280;7999;51.208;4.244;2023-02-04T07:29:56;103592.22;;;8.26;100.00
15794;BME280;7999;51.208;4.244;2023-02-04T07:32:23;103593.84;;;8.24;100.00
15794;BME280;7999;51.208;4.244;2023-02-04T07:34:53;103599.69;;;8.36;100.00
15794;BME280;7999;51.208;4.244;2023-02-04T07:37:21;103606.16;;;8.28;100.00
15794;BME280;7999;51.208;4.244;2023-02-04T07:39:47;103604.94;;;8.22;100.00
15794;BME280;7999;51.208;4.244;2023-02-04T07:42:14;103612.78;;;8.23;100.00
15794;BME280;7999;51.208;4.244;2023-02-04T07:44:49;103609.91;;;8.33;100.00
15794;BME280;7999;51.208;4.244;2023-02-04T07:47:17;103620.81;;;8.28;100.00
15794;BME280;7999;51.208;4.244;2023-02-04T07:49:44;103623.66;;;8.32;100.00
15794;BME280;7999;51.208;4.244;2023-02-04T07:52:12;103620.28;;;8.33;100.00
15794;BME280;7999;51.208;4.244;2023-02-04T07:54:39;103627.25;;;8.34;100.00
15794;BME280;7999;51.208;4.244;2023-02-04T07:57:07;103630.06;;;8.39;100.00
15794;BME280;7999;51.208;4.244;2023-02-04T07:59:34;103635.31;;;8.24;100.00
15794;BME280;7999;51.208;4.244;2023-02-04T08:02:01;103634.38;;;8.39;100.00
15794;BME280;7999;51.208;4.244;2023-02-04T08:04:27;103634.38;;;8.39;100.00
15794;BME280;7999;51.208;4.244;2023-02-04T08:06:54;103626.56;;;8.22;100.00
15794;BME280;7999;51.208;4.244;2023-02-04T08:09:22;103634.59;;;8.43;100.00
15794;BME280;7999;51.208;4.244;2023-02-04T08:11:51;103640.91;;;8.48;100.00
15794;BME280;7999;51.208;4.244;2023-02-04T08:14:18;103638.25;;;8.47;100.00
15794;BME280;7999;51.208;4.244;2023-02-04T08:16:46;103639.50;;;8.53;100.00
15794;BME280;7999;51.208;4.244;2023-02-04T08:19:13;103638.59;;;8.53;100.00
15794;BME280;7999;51.208;4.244;2023-02-04T08:21:43;103641.34;;;8.40;100.00
15794;BME280;7999;51.208;4.244;2023-02-04T08:24:10;103641.34;;;8.40;100.00
15794;BME280;7999;51.208;4.244;2023-02-04T08:26:38;103644.41;;;8.49;100.00
15794;BME280;7999;51.208;4.244;2023-02-04T08:29:05;103636.09;;;8.54;100.00
15794;BME280;7999;51.208;4.244;2023-02-04T08:31:32;103634.03;;;8.49;100.00
15794;BME280;7999;51.208;4.244;2023-02-04T08:33:59;103642.91;;;8.52;100.00
15794;BME280;7999;51.208;4.244;2023-02-04T08:36:25;103642.38;;;8.43;100.00
15794;BME280;7999;51.208;4.244;2023-02-04T08:38:53;103648.13;;;8.70;100.00
15794;BME280;7999;51.208;4.244;2023-02-04T08:41:19;103648.13;;;8.70;100.00
15794;BME280;7999;51.208;4.244;2023-02-04T08:43:47;103654.78;;;8.65;100.00
15794;BME280;7999;51.208;4.244;2023-02-04T08:46:14;103643.22;;;8.58;100.00
15794;BME280;7999;51.208;4.244;2023-02-04T08:48:44;103656.91;;;8.56;100.00
15794;BME280;7999;51.208;4.244;2023-02-04T08:51:10;103665.00;;;8.62;100.00
15794;BME280;7999;51.208;4.244;2023-02-04T08:53:37;103665.16;;;8.65;100.00
15794;BME280;7999;51.208;4.244;2023-02-04T08:56:05;103661.41;;;8.76;100.00
15794;BME280;7999;51.208;4.244;2023-02-04T08:58:32;103665.31;;;8.68;100.00
15794;BME280;7999;51.208;4.244;2023-02-04T09:01:00;103662.72;;;8.84;100.00
15794;BME280;7999;51.208;4.244;2023-02-04T09:03:27;103672.09;;;8.98;100.00
15794;BME280;7999;51.208;4.244;2023-02-04T09:05:54;103675.69;;;8.84;100.00
15794;BME280;7999;51.208;4.244;2023-02-04T09:08:20;103682.91;;;8.90;100.00
15794;BME280;7999;51.208;4.244;2023-02-04T09:10:47;103682.81;;;9.05;100.00
15794;BME280;7999;51.208;4.244;2023-02-04T09:13:14;103682.63;;;9.02;100.00
15794;BME280;7999;51.208;4.244;2023-02-04T09:15:41;103677.69;;;9.06;100.00
15794;BME280;7999;51.208;4.244;2023-02-04T09:18:09;103684.66;;;9.07;100.00
15794;BME280;7999;51.208;4.244;2023-02-04T09:20:40;103685.56;;;9.08;100.00
15794;BME280;7999;51.208;4.244;2023-02-04T09:23:07;103693.00;;;9.02;100.00
15794;BME280;7999;51.208;4.244;2023-02-04T09:25:36;103685.38;;;9.21;100.00
15794;BME280;7999;51.208;4.244;2023-02-04T09:28:03;103685.22;;;9.02;100.00
15794;BME280;7999;51.208;4.244;2023-02-04T09:30:29;103684.59;;;9.06;100.00
15794;BME280;7999;51.208;4.244;2023-02-04T09:32:56;103700.00;;;8.70;100.00
15794;BME280;7999;51.208;4.244;2023-02-04T09:35:24;103696.25;;;8.97;100.00
15794;BME280;7999;51.208;4.244;2023-02-04T09:37:51;103685.88;;;8.97;100.00
15794;BME280;7999;51.208;4.244;2023-02-04T09:40:18;103696.25;;;8.97;100.00
15794;BME280;7999;51.208;4.244;2023-02-04T09:42:46;103690.69;;;9.06;100.00
15794;BME280;7999;51.208;4.244;2023-02-04T09:45:14;103700.16;;;8.89;100.00
15794;BME280;7999;51.208;4.244;2023-02-04T09:47:43;103703.84;;;9.27;100.00
15794;BME280;7999;51.208;4.244;2023-02-04T09:50:12;103706.44;;;9.27;100.00
15794;BME280;7999;51.208;4.244;2023-02-04T09:52:40;103701.72;;;9.36;100.00
15794;BME280;7999;51.208;4.244;2023-02-04T09:55:08;103695.81;;;9.22;100.00
15794;BME280;7999;51.208;4.244;2023-02-04T09:57:38;103705.50;;;9.43;100.00
15794;BME280;7999;51.208;4.244;2023-02-04T10:00:08;103704.31;;;9.36;100.00
15794;BME280;7999;51.208;4.244;2023-02-04T10:02:40;103706.28;;;9.24;100.00
15794;BME280;7999;51.208;4.244;2023-02-04T10:05:08;103711.41;;;9.22;100.00
15794;BME280;7999;51.208;4.244;2023-02-04T10:07:38;103710.88;;;9.29;100.00
15794;BME280;7999;51.208;4.244;2023-02-04T10:10:08;103708.38;;;9.31;100.00
15794;BME280;7999;51.208;4.244;2023-02-04T10:12:39;103719.69;;;9.49;100.00
15794;BME280;7999;51.208;4.244;2023-02-04T10:15:07;103710.22;;;9.68;100.00
15794;BME280;7999;51.208;4.244;2023-02-04T10:17:35;103715.28;;;9.65;100.00
15794;BME280;7999;51.208;4.244;2023-02-04T10:20:02;103708.56;;;9.52;100.00
15794;BME280;7999;51.208;4.244;2023-02-04T10:22:30;103718.06;;;9.51;100.00
15794;BME280;7999;51.208;4.244;2023-02-04T10:24:58;103717.34;;;9.72;100.00
15794;BME280;7999;51.208;4.244;2023-02-04T10:27:26;103710.50;;;9.56;100.00
15794;BME280;7999;51.208;4.244;2023-02-04T10:29:57;103713.63;;;9.67;100.00
15794;BME280;7999;51.208;4.244;2023-02-04T10:32:25;103716.09;;;9.64;100.00
15794;BME280;7999;51.208;4.244;2023-02-04T10:34:55;103714.94;;;9.58;100.00
15794;BME280;7999;51.208;4.244;2023-02-04T10:37:23;103715.28;;;9.65;100.00
15794;BME280;7999;51.208;4.244;2023-02-04T10:39:50;103709.34;;;9.67;100.00
15794;BME280;7999;51.208;4.244;2023-02-04T10:42:19;103715.56;;;9.71;100.00
15794;BME280;7999;51.208;4.244;2023-02-04T10:44:48;103716.91;;;9.98;100.00
15794;BME280;7999;51.208;4.244;2023-02-04T10:47:15;103721.03;;;10.12;100.00
15794;BME280;7999;51.208;4.244;2023-02-04T10:49:50;103715.50;;;10.23;100.00
15794;BME280;7999;51.208;4.244;2023-02-04T10:52:17;103718.97;;;10.05;100.00
15794;BME280;7999;51.208;4.244;2023-02-04T10:54:45;103717.44;;;9.91;100.00
15794;BME280;7999;51.208;4.244;2023-02-04T10:57:14;103718.75;;;9.83;100.00
15794;BME280;7999;51.208;4.244;2023-02-04T10:59:43;103717.06;;;10.01;100.00
15794;BME280;7999;51.208;4.244;2023-02-04T11:04:59;103707.06;;;10.46;100.00
15794;BME280;7999;51.208;4.244;2023-02-04T11:07:26;103705.09;;;10.60;100.00
15794;BME280;7999;51.208;4.244;2023-02-04T11:09:54;103699.34;;;10.67;100.00
15794;BME280;7999;51.208;4.244;2023-02-04T11:12:22;103691.19;;;10.78;100.00
15794;BME280;7999;51.208;4.244;2023-02-04T11:14:55;103689.56;;;10.80;100.00
15794;BME280;7999;51.208;4.244;2023-02-04T11:17:27;103701.22;;;10.69;100.00
15794;BME280;7999;51.208;4.244;2023-02-04T11:19:54;103704.72;;;10.33;100.00
15794;BME280;7999;51.208;4.244;2023-02-04T11:22:23;103697.06;;;10.55;100.00
15794;BME280;7999;51.208;4.244;2023-02-04T11:24:50;103692.84;;;10.57;100.00
15794;BME280;7999;51.208;4.244;2023-02-04T11:27:18;103696.13;;;10.53;100.00
15794;BME280;7999;51.208;4.244;2023-02-04T11:29:46;103689.16;;;10.71;100.00
15794;BME280;7999;51.208;4.244;2023-02-04T11:32:25;103684.97;;;10.75;100.00
15794;BME280;7999;51.208;4.244;2023-02-04T11:34:53;103689.09;;;10.33;100.00
15794;BME280;7999;51.208;4.244;2023-02-04T11:37:33;103685.44;;;10.66;100.00
15794;BME280;7999;51.208;4.244;2023-02-04T11:40:00;103695.44;;;10.96;100.00
15794;BME280;7999;51.208;4.244;2023-02-04T11:42:37;103688.59;;;10.98;100.00
15794;BME280;7999;51.208;4.244;2023-02-04T11:45:07;103681.81;;;10.82;100.00
15794;BME280;7999;51.208;4.244;2023-02-04T11:47:38;103688.47;;;10.75;100.00
15794;BME280;7999;51.208;4.244;2023-02-04T11:50:10;103685.63;;;10.14;100.00
15794;BME280;7999;51.208;4.244;2023-02-04T11:52:39;103696.09;;;10.34;100.00
15794;BME280;7999;51.208;4.244;2023-02-04T11:55:08;103686.41;;;10.49;100.00
15794;BME280;7999;51.208;4.244;2023-02-04T11:57:37;103693.38;;;10.50;100.00
15794;BME280;7999;51.208;4.244;2023-02-04T12:00:04;103680.22;;;10.66;100.00
15794;BME280;7999;51.208;4.244;2023-02-04T12:02:40;103685.03;;;10.76;100.00
15794;BME280;7999;51.208;4.244;2023-02-04T12:05:08;103680.09;;;10.82;100.00
15794;BME280;7999;51.208;4.244;2023-02-04T12:07:35;103685.03;;;10.76;100.00
15794;BME280;7999;51.208;4.244;2023-02-04T12:10:11;103689.56;;;10.80;100.00
15794;BME280;7999;51.208;4.244;2023-02-04T12:12:42;103693.38;;;10.89;100.00
15794;BME280;7999;51.208;4.244;2023-02-04T12:15:13;103684.47;;;10.83;100.00
15794;BME280;7999;51.208;4.244;2023-02-04T12:17:43;103683.84;;;10.89;100.00
15794;BME280;7999;51.208;4.244;2023-02-04T12:20:10;103687.66;;;10.76;100.00
15794;BME280;7999;51.208;4.244;2023-02-04T12:22:37;103686.94;;;10.80;100.00
15794;BME280;7999;51.208;4.244;2023-02-04T12:25:04;103681.47;;;10.74;100.00
15794;BME280;7999;51.208;4.244;2023-02-04T12:27:32;103680.97;;;10.64;100.00
15794;BME280;7999;51.208;4.244;2023-02-04T12:29:59;103689.75;;;10.66;100.00
15794;BME280;7999;51.208;4.244;2023-02-04T12:32:26;103692.91;;;10.97;100.00
15794;BME280;7999;51.208;4.244;2023-02-04T12:34:53;103681.41;;;10.73;100.00
15794;BME280;7999;51.208;4.244;2023-02-04T12:37:19;103685.91;;;10.58;100.00
15794;BME280;7999;51.208;4.244;2023-02-04T12:39:46;103692.97;;;10.79;100.00
15794;BME280;7999;51.208;4.244;2023-02-04T12:42:12;103681.94;;;10.85;100.00
15794;BME280;7999;51.208;4.244;2023-02-04T12:44:41;103681.44;;;10.94;100.00
15794;BME280;7999;51.208;4.244;2023-02-04T12:47:07;103679.84;;;10.96;100.00
15794;BME280;7999;51.208;4.244;2023-02-04T12:49:34;103675.97;;;10.88;100.00
15794;BME280;7999;51.208;4.244;2023-02-04T12:52:02;103679.00;;;10.97;100.00
15794;BME280;7999;51.208;4.244;2023-02-04T12:54:29;103673.94;;;10.80;100.00
15794;BME280;7999;51.208;4.244;2023-02-04T12:56:56;103688.59;;;10.98;100.00
15794;BME280;7999;51.208;4.244;2023-02-04T12:59:23;103679.53;;;10.90;100.00
15794;BME280;7999;51.208;4.244;2023-02-04T13:01:51;103687.69;;;10.97;100.00
15794;BME280;7999;51.208;4.244;2023-02-04T13:04:18;103681.03;;;11.04;100.00
15794;BME280;7999;51.208;4.244;2023-02-04T13:06:46;103679.31;;;11.04;100.00